createdAt,value
2023-06-28T00:00:17.438Z,27.90
2023-06-28T00:02:46.923Z,27.90
2023-06-28T00:05:16.117Z,27.90
2023-06-28T00:07:45.160Z,27.90
2023-06-28T00:10:14.140Z,27.90
2023-06-28T00:12:43.132Z,27.90
2023-06-28T00:15:12.600Z,27.90
2023-06-28T00:17:41.583Z,28.00
2023-06-28T00:20:13.078Z,28.00
2023-06-28T00:22:42.264Z,28.00
2023-06-28T00:25:11.706Z,28.00
2023-06-28T00:27:40.872Z,28.10
2023-06-28T00:30:10.660Z,28.10
2023-06-28T00:32:39.880Z,28.20
2023-06-28T00:35:09.662Z,28.30
2023-06-28T00:37:38.670Z,28.30
2023-06-28T00:40:08.639Z,28.40
2023-06-28T00:42:37.607Z,28.50
2023-06-28T00:45:06.979Z,28.60
2023-06-28T00:47:36.100Z,28.80
2023-06-28T00:50:05.870Z,28.80
2023-06-28T00:52:35.211Z,29.00
2023-06-28T00:55:04.222Z,29.10
2023-06-28T00:57:33.999Z,29.20
2023-06-28T01:00:03.178Z,29.30
2023-06-28T01:02:33.260Z,29.40
2023-06-28T01:05:02.553Z,29.50
2023-06-28T01:07:32.441Z,29.60
2023-06-28T01:10:01.496Z,29.60
2023-06-28T01:12:31.519Z,29.70
2023-06-28T01:15:00.633Z,29.80
2023-06-28T01:17:30.065Z,29.90
2023-06-28T01:19:59.132Z,30.00
2023-06-28T01:22:29.661Z,30.00
2023-06-28T01:24:58.683Z,30.10
2023-06-28T01:27:28.110Z,30.10
2023-06-28T01:29:58.637Z,30.20
2023-06-28T01:32:27.833Z,30.20
2023-06-28T01:34:56.949Z,30.20
2023-06-28T01:37:26.801Z,30.20
2023-06-28T01:39:55.996Z,30.20
2023-06-28T01:42:25.050Z,30.20
2023-06-28T01:44:54.043Z,30.20
2023-06-28T01:47:26.537Z,30.30
2023-06-28T01:49:55.777Z,30.30
2023-06-28T01:52:24.787Z,30.50
2023-06-28T01:54:53.813Z,30.60
2023-06-28T01:57:22.876Z,30.70
2023-06-28T01:59:51.895Z,30.80
2023-06-28T02:02:21.043Z,30.80
2023-06-28T02:04:50.417Z,30.90
2023-06-28T02:07:19.530Z,31.00
2023-06-28T02:09:48.571Z,31.00
2023-06-28T02:12:17.526Z,31.10
2023-06-28T02:14:46.532Z,31.20
2023-06-28T02:17:18.598Z,31.30
2023-06-28T02:19:48.052Z,31.40
2023-06-28T02:22:21.402Z,31.50
2023-06-28T02:24:50.451Z,31.50
2023-06-28T02:27:19.537Z,31.60
2023-06-28T02:29:48.656Z,31.60
2023-06-28T02:32:17.738Z,31.60
2023-06-28T02:34:46.790Z,31.70
2023-06-28T02:37:15.827Z,31.70
2023-06-28T02:39:44.824Z,31.70
2023-06-28T02:42:13.862Z,31.60
2023-06-28T02:44:42.998Z,31.70
2023-06-28T02:47:12.264Z,31.80
2023-06-28T02:49:41.568Z,31.90
2023-06-28T02:52:10.693Z,31.90
2023-06-28T02:54:39.776Z,31.90
2023-06-28T02:57:10.791Z,32.00
2023-06-28T02:59:40.132Z,32.10
2023-06-28T03:02:11.285Z,32.10
2023-06-28T03:04:42.033Z,32.10
2023-06-28T03:07:21.228Z,32.10
2023-06-28T03:09:50.313Z,32.10
2023-06-28T03:12:19.372Z,32.00
2023-06-28T03:14:48.588Z,32.00
2023-06-28T03:17:19.240Z,31.90
2023-06-28T03:19:48.470Z,31.80
2023-06-28T03:22:17.663Z,31.80
2023-06-28T03:24:46.673Z,31.70
2023-06-28T03:27:15.692Z,31.70
2023-06-28T03:29:44.732Z,31.60
2023-06-28T03:32:13.883Z,31.60
2023-06-28T03:34:43.081Z,31.60
2023-06-28T03:37:13.175Z,31.50
2023-06-28T03:39:42.187Z,31.50
2023-06-28T03:42:11.276Z,31.50
2023-06-28T03:44:40.258Z,31.50
2023-06-28T03:47:09.398Z,31.60
2023-06-28T03:49:38.764Z,31.70
2023-06-28T03:52:08.060Z,31.80
2023-06-28T03:54:37.083Z,31.90
2023-06-28T03:57:07.412Z,31.90
2023-06-28T03:59:36.598Z,31.90
2023-06-28T04:02:05.930Z,31.90
2023-06-28T04:04:35.950Z,32.00
2023-06-28T04:07:05.088Z,32.00
2023-06-28T04:09:34.979Z,31.90
2023-06-28T04:12:04.021Z,32.00
2023-06-28T04:14:34.970Z,31.90
2023-06-28T04:17:05.756Z,32.00
2023-06-28T04:19:35.166Z,32.00
2023-06-28T04:22:04.609Z,32.10
2023-06-28T04:24:33.761Z,32.20
2023-06-28T04:27:03.043Z,32.20
2023-06-28T04:29:32.237Z,32.20
2023-06-28T04:32:05.871Z,32.10
2023-06-28T04:34:34.923Z,32.10
2023-06-28T04:39:35.652Z,32.30
2023-06-28T04:42:05.499Z,32.30
2023-06-28T04:44:41.857Z,32.30
2023-06-28T04:47:11.941Z,32.30
2023-06-28T04:49:41.083Z,32.40
2023-06-28T04:52:10.171Z,32.50
2023-06-28T04:54:39.105Z,32.50
2023-06-28T04:57:08.322Z,32.60
2023-06-28T04:59:37.535Z,32.70
2023-06-28T05:02:07.787Z,32.90
2023-06-28T05:04:37.376Z,32.90
2023-06-28T05:07:08.376Z,33.00
2023-06-28T05:09:38.849Z,33.00
2023-06-28T05:12:08.434Z,33.20
2023-06-28T05:14:37.494Z,33.40
2023-06-28T05:17:06.678Z,33.60
2023-06-28T05:19:35.754Z,33.80
2023-06-28T05:22:05.067Z,34.00
2023-06-28T05:24:34.167Z,34.20
2023-06-28T05:27:03.320Z,34.30
2023-06-28T05:29:32.594Z,34.50
2023-06-28T05:32:01.761Z,34.60
2023-06-28T05:34:30.775Z,34.70
2023-06-28T05:36:59.850Z,34.80
2023-06-28T05:39:28.838Z,34.80
2023-06-28T05:41:58.004Z,34.90
2023-06-28T05:44:27.068Z,34.90
2023-06-28T05:46:56.122Z,34.90
2023-06-28T05:49:25.445Z,35.10
2023-06-28T05:51:54.594Z,35.20
2023-06-28T05:54:26.283Z,35.30
2023-06-28T05:56:55.501Z,35.40
2023-06-28T05:59:24.600Z,35.40
2023-06-28T06:01:55.440Z,35.50
2023-06-28T06:04:25.803Z,35.40
2023-06-28T06:06:55.140Z,35.30
2023-06-28T06:09:24.353Z,35.40
2023-06-28T06:11:53.496Z,35.30
2023-06-28T06:14:25.392Z,35.30
2023-06-28T06:16:57.349Z,35.30
2023-06-28T06:19:26.372Z,35.40
2023-06-28T06:21:55.405Z,35.50
2023-06-28T06:24:25.451Z,35.60
2023-06-28T06:26:56.395Z,35.70
2023-06-28T06:29:25.392Z,35.90
2023-06-28T06:31:55.502Z,36.00
2023-06-28T06:34:24.451Z,36.00
2023-06-28T06:36:53.577Z,36.00
2023-06-28T06:39:22.528Z,36.00
2023-06-28T06:41:51.535Z,36.00
2023-06-28T06:44:20.662Z,35.90
2023-06-28T06:46:49.672Z,35.90
2023-06-28T06:49:21.376Z,35.80
2023-06-28T06:51:50.629Z,35.80
2023-06-28T06:54:19.626Z,35.80
2023-06-28T06:56:48.660Z,35.60
2023-06-28T06:59:18.953Z,35.50
2023-06-28T07:01:48.879Z,35.40
2023-06-28T07:04:17.936Z,35.30
2023-06-28T07:06:49.728Z,35.20
2023-06-28T07:09:19.948Z,35.20
2023-06-28T07:11:49.237Z,35.10
2023-06-28T07:14:18.339Z,35.10
2023-06-28T07:16:47.575Z,35.00
2023-06-28T07:19:16.899Z,34.80
2023-06-28T07:21:46.141Z,34.60
2023-06-28T07:24:15.502Z,34.40
2023-06-28T07:26:44.649Z,34.30
2023-06-28T07:29:13.747Z,34.10
2023-06-28T07:31:42.798Z,34.10
2023-06-28T07:34:11.917Z,34.00
2023-06-28T07:36:40.952Z,33.80
2023-06-28T07:39:11.647Z,33.80
2023-06-28T07:41:40.721Z,33.80
2023-06-28T07:44:09.770Z,33.90
2023-06-28T07:46:39.102Z,34.00
2023-06-28T07:49:08.088Z,34.00
2023-06-28T07:51:37.124Z,34.00
2023-06-28T07:54:07.973Z,34.00
2023-06-28T07:56:40.622Z,34.20
2023-06-28T07:59:09.603Z,34.30
2023-06-28T08:01:38.718Z,34.40
2023-06-28T08:04:08.041Z,34.50
2023-06-28T08:06:37.046Z,34.50
2023-06-28T08:09:06.460Z,34.60
2023-06-28T08:11:35.467Z,34.60
2023-06-28T08:14:04.779Z,34.70
2023-06-28T08:16:34.091Z,34.70
2023-06-28T08:19:03.081Z,34.60
2023-06-28T08:21:32.299Z,34.50
2023-06-28T08:24:01.464Z,34.50
2023-06-28T08:26:30.559Z,34.40
2023-06-28T08:29:03.328Z,34.40
2023-06-28T08:31:32.472Z,34.40
2023-06-28T08:34:01.632Z,34.30
2023-06-28T08:36:31.694Z,34.30
2023-06-28T08:39:00.690Z,34.10
2023-06-28T08:41:29.902Z,34.00
2023-06-28T08:44:02.137Z,33.80
2023-06-28T08:46:34.422Z,33.70
2023-06-28T08:49:04.870Z,33.60
2023-06-28T08:51:34.748Z,33.50
2023-06-28T08:54:07.128Z,33.40
2023-06-28T08:56:48.017Z,33.20
2023-06-28T08:59:21.520Z,33.20
2023-06-28T09:01:53.439Z,33.20
2023-06-28T09:04:24.470Z,33.10
2023-06-28T09:06:57.449Z,33.10
2023-06-28T09:09:28.101Z,33.10
2023-06-28T09:11:57.588Z,33.10
2023-06-28T09:14:26.595Z,33.10
2023-06-28T09:16:56.371Z,33.10
2023-06-28T09:19:25.397Z,33.10
2023-06-28T09:21:54.304Z,33.10
2023-06-28T09:24:27.851Z,33.10
2023-06-28T09:26:56.847Z,33.10
2023-06-28T09:29:25.804Z,33.10
2023-06-28T09:31:57.386Z,33.10
2023-06-28T09:34:26.918Z,33.10
2023-06-28T09:36:57.007Z,32.90
2023-06-28T09:39:28.020Z,32.90
2023-06-28T09:41:57.283Z,32.90
2023-06-28T09:44:32.834Z,32.90
2023-06-28T09:47:08.602Z,32.90
2023-06-28T09:49:40.418Z,32.90
2023-06-28T09:52:09.940Z,32.90
2023-06-28T09:54:48.210Z,32.90
2023-06-28T09:57:18.215Z,32.90
2023-06-28T09:59:48.462Z,32.90
2023-06-28T10:02:22.639Z,32.70
2023-06-28T10:04:53.876Z,32.60
2023-06-28T10:07:25.645Z,32.30
2023-06-28T10:09:56.363Z,32.20
2023-06-28T10:12:30.335Z,32.00
2023-06-28T10:15:05.189Z,31.90
2023-06-28T10:17:36.489Z,31.80
2023-06-28T10:20:07.308Z,31.70
2023-06-28T10:22:36.915Z,31.70
2023-06-28T10:25:07.203Z,31.50
2023-06-28T10:27:36.804Z,31.40
2023-06-28T10:30:06.849Z,31.40
2023-06-28T10:32:37.012Z,31.30
2023-06-28T10:35:08.886Z,31.20
2023-06-28T10:37:38.321Z,31.10
2023-06-28T10:40:11.671Z,31.00
2023-06-28T10:42:41.987Z,30.90
2023-06-28T10:45:11.660Z,30.90
2023-06-28T10:47:56.413Z,30.80
2023-06-28T10:50:26.353Z,30.80
2023-06-28T10:52:57.868Z,30.70
2023-06-28T10:55:35.044Z,30.70
2023-06-28T10:58:08.563Z,30.60
2023-06-28T11:00:42.892Z,30.60
2023-06-28T11:03:12.094Z,30.60
2023-06-28T11:05:47.439Z,30.60
2023-06-28T11:08:19.138Z,30.60
2023-06-28T11:10:56.523Z,30.60
2023-06-28T11:13:47.614Z,30.60
2023-06-28T11:16:33.336Z,30.60
2023-06-28T11:19:17.115Z,30.50
2023-06-28T11:21:51.673Z,30.50
2023-06-28T11:24:40.718Z,30.50
2023-06-28T11:27:19.423Z,30.50
2023-06-28T11:29:56.298Z,30.30
2023-06-28T11:32:35.512Z,29.80
2023-06-28T11:35:06.418Z,29.50
2023-06-28T11:37:35.562Z,29.10
2023-06-28T11:40:05.603Z,28.80
2023-06-28T11:42:34.589Z,28.60
2023-06-28T11:45:03.534Z,28.50
2023-06-28T11:47:33.082Z,28.30
2023-06-28T11:50:02.114Z,28.20
2023-06-28T11:52:31.658Z,28.10
2023-06-28T11:55:01.401Z,28.10
2023-06-28T11:57:30.462Z,28.00
2023-06-28T11:59:59.456Z,27.90
2023-06-28T12:02:28.508Z,27.80
2023-06-28T12:05:02.563Z,27.70
2023-06-28T12:07:31.880Z,27.60
2023-06-28T12:10:01.879Z,27.60
2023-06-28T12:12:37.823Z,27.60
2023-06-28T12:15:08.069Z,27.50
2023-06-28T12:17:44.727Z,27.40
2023-06-28T12:20:14.621Z,27.40
2023-06-28T12:22:48.742Z,27.30
2023-06-28T12:25:29.045Z,27.20
2023-06-28T12:28:05.457Z,27.10
2023-06-28T12:30:34.448Z,27.00
2023-06-28T12:33:11.091Z,26.90
2023-06-28T12:35:48.462Z,26.90
2023-06-28T12:38:21.497Z,26.80
2023-06-28T12:40:50.666Z,26.70
2023-06-28T12:43:27.486Z,26.60
2023-06-28T12:45:57.598Z,26.50
2023-06-28T12:48:26.605Z,26.50
2023-06-28T12:50:57.840Z,26.40
2023-06-28T12:53:26.997Z,26.40
2023-06-28T12:55:56.026Z,26.30
2023-06-28T12:58:25.036Z,26.30
2023-06-28T13:00:54.057Z,26.20
2023-06-28T13:03:23.336Z,26.20
2023-06-28T13:05:52.464Z,26.10
2023-06-28T13:08:21.828Z,26.10
2023-06-28T13:10:50.930Z,26.00
2023-06-28T13:13:20.019Z,26.00
2023-06-28T13:15:49.116Z,26.00
2023-06-28T13:18:18.106Z,26.00
2023-06-28T13:20:47.159Z,26.00
2023-06-28T13:23:16.207Z,26.10
2023-06-28T13:25:45.418Z,26.10
2023-06-28T13:28:14.651Z,26.10
2023-06-28T13:30:43.648Z,26.00
2023-06-28T13:33:12.645Z,26.00
2023-06-28T13:35:41.890Z,26.00
2023-06-28T13:38:11.151Z,26.00
2023-06-28T13:40:40.175Z,26.00
2023-06-28T13:43:10.464Z,26.00
2023-06-28T13:45:40.267Z,26.00
2023-06-28T13:48:11.802Z,26.00
2023-06-28T13:50:41.134Z,26.00
2023-06-28T13:53:10.235Z,26.00
2023-06-28T13:55:39.275Z,25.90
2023-06-28T13:58:08.291Z,26.00
2023-06-28T14:00:37.612Z,25.90
2023-06-28T14:03:06.704Z,25.80
2023-06-28T14:05:35.925Z,25.80
2023-06-28T14:08:05.202Z,25.70
2023-06-28T14:10:34.151Z,25.60
2023-06-28T14:13:03.222Z,25.60
2023-06-28T14:15:32.273Z,25.50
2023-06-28T14:18:02.523Z,25.60
2023-06-28T14:20:31.780Z,25.70
2023-06-28T14:23:00.850Z,25.70
2023-06-28T14:25:30.276Z,25.80
2023-06-28T14:28:00.522Z,25.90
2023-06-28T14:30:29.563Z,26.00
2023-06-28T14:32:59.096Z,26.10
2023-06-28T14:35:28.402Z,26.00
2023-06-28T14:37:57.501Z,26.00
2023-06-28T14:40:26.621Z,26.00
2023-06-28T14:42:55.654Z,25.90
2023-06-28T14:45:24.680Z,25.90
2023-06-28T14:47:55.065Z,25.90
2023-06-28T14:50:24.146Z,25.90
2023-06-28T14:52:53.196Z,25.90
2023-06-28T14:55:22.195Z,25.90
2023-06-28T14:57:51.132Z,25.80
2023-06-28T15:00:20.457Z,25.80
2023-06-28T15:02:50.598Z,25.70
2023-06-28T15:05:19.647Z,25.70
2023-06-28T15:07:48.744Z,25.70
2023-06-28T15:10:19.619Z,25.70
2023-06-28T15:12:48.687Z,25.60
2023-06-28T15:15:17.699Z,25.60
2023-06-28T15:17:46.769Z,25.60
2023-06-28T15:20:20.220Z,25.50
2023-06-28T15:23:07.129Z,25.40
2023-06-28T15:25:36.470Z,25.40
2023-06-28T15:28:05.718Z,25.40
2023-06-28T15:30:34.783Z,25.30
2023-06-28T15:33:03.881Z,25.30
2023-06-28T15:35:32.953Z,25.30
2023-06-28T15:38:02.019Z,25.30
2023-06-28T15:40:34.221Z,25.30
2023-06-28T15:43:03.857Z,25.30
2023-06-28T15:45:32.825Z,25.30
2023-06-28T15:48:01.863Z,25.30
2023-06-28T15:50:30.885Z,25.30
2023-06-28T15:52:59.840Z,25.30
2023-06-28T15:55:29.043Z,25.30
2023-06-28T15:57:58.027Z,25.30
2023-06-28T16:00:27.112Z,25.30
2023-06-28T16:02:56.461Z,25.40
2023-06-28T16:05:25.524Z,25.40
2023-06-28T16:07:55.084Z,25.40
2023-06-28T16:10:24.555Z,25.40
2023-06-28T16:12:53.727Z,25.40
2023-06-28T16:15:22.801Z,25.50
2023-06-28T16:17:51.856Z,25.40
2023-06-28T16:20:21.237Z,25.40
2023-06-28T16:22:50.960Z,25.40
2023-06-28T16:25:20.213Z,25.40
2023-06-28T16:27:49.191Z,25.40
2023-06-28T16:30:18.318Z,25.40
2023-06-28T16:32:47.318Z,25.40
2023-06-28T16:35:16.514Z,25.40
2023-06-28T16:37:45.489Z,25.50
2023-06-28T16:40:16.362Z,25.50
2023-06-28T16:42:45.319Z,25.50
2023-06-28T16:45:14.367Z,25.50
2023-06-28T16:47:43.417Z,25.50
2023-06-28T16:50:12.819Z,25.50
2023-06-28T16:52:41.928Z,25.50
2023-06-28T16:55:10.989Z,25.50
2023-06-28T16:57:40.120Z,25.50
2023-06-28T17:00:10.285Z,25.50
2023-06-28T17:02:39.419Z,25.40
2023-06-28T17:05:08.713Z,25.50
2023-06-28T17:07:37.701Z,25.40
2023-06-28T17:12:33.898Z,25.40
2023-06-28T17:15:02.893Z,25.40
2023-06-28T17:17:31.948Z,25.50
2023-06-28T17:20:00.912Z,25.40
2023-06-28T17:22:33.398Z,25.40
2023-06-28T17:25:03.254Z,25.40
2023-06-28T17:27:32.293Z,25.50
2023-06-28T17:30:01.322Z,25.50
2023-06-28T17:32:30.367Z,25.40
2023-06-28T17:34:59.370Z,25.40
2023-06-28T17:37:28.579Z,25.40
2023-06-28T17:39:58.031Z,25.40
2023-06-28T17:42:27.079Z,25.40
2023-06-28T17:44:56.062Z,25.40
2023-06-28T17:47:25.092Z,25.40
2023-06-28T17:49:54.066Z,25.40
2023-06-28T17:52:22.988Z,25.40
2023-06-28T17:54:52.369Z,25.40
2023-06-28T17:57:21.378Z,25.40
2023-06-28T17:59:50.616Z,25.40
2023-06-28T18:02:19.609Z,25.40
2023-06-28T18:04:48.610Z,25.40
2023-06-28T18:07:17.670Z,25.40
2023-06-28T18:09:46.762Z,25.50
2023-06-28T18:12:15.832Z,25.40
2023-06-28T18:14:44.834Z,25.40
2023-06-28T18:17:13.884Z,25.30
2023-06-28T18:19:44.555Z,25.30
2023-06-28T18:22:13.614Z,25.30
2023-06-28T18:24:42.586Z,25.40
2023-06-28T18:27:11.646Z,25.40
2023-06-28T18:29:40.597Z,25.40
2023-06-28T18:32:10.223Z,25.40
2023-06-28T18:34:39.263Z,25.40
2023-06-28T18:37:08.394Z,25.40
2023-06-28T18:39:37.398Z,25.40
2023-06-28T18:42:06.729Z,25.40
2023-06-28T18:44:35.723Z,25.40
2023-06-28T18:47:05.951Z,25.40
2023-06-28T18:49:34.964Z,25.30
2023-06-28T18:52:03.984Z,25.40
2023-06-28T18:54:32.994Z,25.40
2023-06-28T18:57:02.047Z,25.40
2023-06-28T18:59:31.013Z,25.30
2023-06-28T19:01:59.970Z,25.30
2023-06-28T19:04:28.931Z,25.30
2023-06-28T19:06:57.989Z,25.30
2023-06-28T19:09:27.051Z,25.30
2023-06-28T19:11:56.059Z,25.30
2023-06-28T19:14:25.063Z,25.30
2023-06-28T19:16:54.024Z,25.30
2023-06-28T19:19:23.202Z,25.30
2023-06-28T19:21:52.210Z,25.30
2023-06-28T19:24:21.155Z,25.20
2023-06-28T19:26:50.107Z,25.30
2023-06-28T19:29:19.223Z,25.20
2023-06-28T19:31:48.233Z,25.30
2023-06-28T19:34:17.209Z,25.30
2023-06-28T19:36:46.138Z,25.30
2023-06-28T19:39:15.127Z,25.30
2023-06-28T19:41:44.214Z,25.30
2023-06-28T19:44:13.176Z,25.30
2023-06-28T19:46:42.131Z,25.30
2023-06-28T19:49:11.047Z,25.30
2023-06-28T19:51:40.081Z,25.30
2023-06-28T19:54:09.074Z,25.30
2023-06-28T19:56:38.101Z,25.30
2023-06-28T19:59:07.074Z,25.30
2023-06-28T20:01:36.096Z,25.30
2023-06-28T20:04:05.097Z,25.30
2023-06-28T20:06:41.667Z,25.30
2023-06-28T20:09:11.190Z,25.30
2023-06-28T20:11:40.848Z,25.30
2023-06-28T20:14:11.056Z,25.30
2023-06-28T20:16:41.099Z,25.30
2023-06-28T20:19:13.469Z,25.30
2023-06-28T20:21:43.314Z,25.30
2023-06-28T20:24:13.548Z,25.30
2023-06-28T20:26:42.624Z,25.30
2023-06-28T20:29:11.656Z,25.30
2023-06-28T20:31:40.688Z,25.30
2023-06-28T20:34:10.572Z,25.30
2023-06-28T20:36:39.594Z,25.30
2023-06-28T20:39:08.695Z,25.30
2023-06-28T20:41:37.688Z,25.30
2023-06-28T20:44:07.754Z,25.30
2023-06-28T20:46:36.717Z,25.30
2023-06-28T20:49:06.631Z,25.20
2023-06-28T20:51:36.132Z,25.30
2023-06-28T20:54:05.151Z,25.30
2023-06-28T20:56:34.290Z,25.30
2023-06-28T20:59:03.346Z,25.30
2023-06-28T21:01:32.403Z,25.30
2023-06-28T21:04:01.408Z,25.30
2023-06-28T21:06:30.514Z,25.30
2023-06-28T21:08:59.457Z,25.30
2023-06-28T21:11:28.821Z,25.30
2023-06-28T21:13:58.007Z,25.30
2023-06-28T21:16:27.004Z,25.30
2023-06-28T21:18:55.957Z,25.30
2023-06-28T21:21:25.038Z,25.30
2023-06-28T21:23:55.019Z,25.30
2023-06-28T21:26:23.964Z,25.30
2023-06-28T21:28:52.942Z,25.30
2023-06-28T21:31:21.929Z,25.30
2023-06-28T21:33:51.978Z,25.30
2023-06-28T21:36:20.979Z,25.30
2023-06-28T21:38:50.825Z,25.30
2023-06-28T21:41:19.970Z,25.40
2023-06-28T21:43:49.057Z,25.40
2023-06-28T21:46:17.993Z,25.40
2023-06-28T21:48:46.958Z,25.30
2023-06-28T21:51:15.955Z,25.40
2023-06-28T21:53:44.938Z,25.40
2023-06-28T21:56:14.016Z,25.30
2023-06-28T21:58:43.009Z,25.40
2023-06-28T22:01:12.339Z,25.40
2023-06-28T22:03:41.341Z,25.30
2023-06-28T22:06:10.410Z,25.30
2023-06-28T22:08:39.817Z,25.30
2023-06-28T22:11:10.470Z,25.40
2023-06-28T22:13:43.394Z,25.40
2023-06-28T22:16:15.658Z,25.40
2023-06-28T22:18:47.894Z,25.30
2023-06-28T22:21:18.144Z,25.40
2023-06-28T22:23:47.089Z,25.40
2023-06-28T22:26:16.318Z,25.40
2023-06-28T22:28:45.268Z,25.40
2023-06-28T22:31:14.364Z,25.40
2023-06-28T22:33:43.418Z,25.30
2023-06-28T22:36:12.477Z,25.40
2023-06-28T22:38:51.525Z,25.40
2023-06-28T22:41:21.936Z,25.30
2023-06-28T22:43:51.046Z,25.30
2023-06-28T22:46:20.191Z,25.30
2023-06-28T22:48:49.155Z,25.30
2023-06-28T22:51:19.190Z,25.30
2023-06-28T22:53:49.410Z,25.30
2023-06-28T22:56:19.039Z,25.30
2023-06-28T22:58:48.081Z,25.40
2023-06-28T23:01:17.051Z,25.40
2023-06-28T23:03:46.119Z,25.30
2023-06-28T23:06:15.138Z,25.40
2023-06-28T23:08:44.416Z,25.30
2023-06-28T23:11:13.463Z,25.30
2023-06-28T23:13:46.383Z,25.30
2023-06-28T23:16:17.590Z,25.40
2023-06-28T23:18:49.199Z,25.40
2023-06-28T23:21:18.193Z,25.40
2023-06-28T23:23:47.283Z,25.40
2023-06-28T23:26:19.230Z,25.40
2023-06-28T23:28:48.271Z,25.40
2023-06-28T23:31:17.629Z,25.40
2023-06-28T23:33:47.210Z,25.40
2023-06-28T23:36:16.265Z,25.50
2023-06-28T23:38:46.670Z,25.50
2023-06-28T23:41:15.716Z,25.50
2023-06-28T23:43:44.777Z,25.60
2023-06-28T23:46:15.033Z,25.60
2023-06-28T23:48:46.619Z,25.60
2023-06-28T23:51:15.633Z,25.60
2023-06-28T23:53:44.628Z,25.60
2023-06-28T23:56:14.003Z,25.60
2023-06-28T23:58:43.447Z,25.60
